Flight Track Log - Related Links

Times and Time Zones

All times are in EDT time to prevent confusion due to time zone crossing. See the CTL21 flight status page for this flight to view local times or setup timezone preferences in your user account.

Time Position Orientation Groundspeed Altitude Reporting Facility
EDT Latitude Longitude Course Direction KTS MPH feet Rate Location/Type
Tue 05:29:04 PM 42.1556 -85.5697 142° Southeast 150 173 3,600  Level Chicago Center
Tue 05:30:07 PM 42.1350 -85.5161 117° Southeast 159 183 4,000 384 Climbing Chicago Center
Tue 05:31:09 PM 42.1125 -85.4586 118° Southeast 169 194 4,400 290 Climbing Chicago Center
Tue 05:32:00 PM 42.0783 -85.1866 117° Southeast  Level FlightAware
Tue 05:32:11 PM 42.0919 -85.3981 115° Southeast 175 201 4,600  Level Chicago Center
Tue 05:33:00 PM 42.0548 -85.1242 117° Southeast  Level FlightAware
Tue 05:33:13 PM 42.0706 -85.3372 115° Southeast 178 205 5,000  Level Chicago Center
Tue 05:34:15 PM 42.0494 -85.2783 116° Southeast 176 203 5,400 435 Climbing Chicago Center
Tue 05:35:17 PM 42.0242 -85.2069 115° Southeast 175 201 5,900 435 Climbing Chicago Center
Tue 05:36:19 PM 42.0036 -85.1483 115° Southeast 174 200 6,300 435 Climbing Chicago Center
Tue 05:37:21 PM 41.9825 -85.0900 116° Southeast 173 199 6,800 387 Climbing Chicago Center
Tue 05:38:23 PM 41.9622 -85.0328 115° Southeast 170 196 7,100 145 Climbing Chicago Center
Tue 05:39:25 PM 41.9364 -84.9664 118° Southeast 189 217 7,100  Level Chicago Center
Tue 05:40:27 PM 41.9122 -84.8972 115° Southeast 200 230 7,100  Level Chicago Center
Tue 05:41:29 PM 41.8831 -84.8192 117° Southeast 196 226 7,100  Level Chicago Center
Tue 05:42:31 PM 41.8578 -84.7544 118° Southeast 196 226 7,100  Level Chicago Center
Tue 05:43:33 PM 41.8333 -84.6897 117° Southeast 194 223 7,100  Level Chicago Center
Tue 05:44:35 PM 41.8100 -84.6239 115° Southeast 195 224 7,100  Level Chicago Center
Tue 05:45:38 PM 41.7853 -84.5575 117° Southeast 197 227 7,100  Level Chicago Center
Tue 05:46:40 PM 41.7633 -84.4933 115° Southeast 193 222 7,100  Level Chicago Center
Tue 05:47:42 PM 41.7356 -84.4156 116° Southeast 193 222 7,100  Level Chicago Center
Tue 05:48:44 PM 41.7136 -84.3483 114° Southeast 195 224 7,100  Level Chicago Center
Tue 05:49:46 PM 41.6897 -84.2839 116° Southeast 194 223 7,100  Level Chicago Center
Tue 05:50:48 PM 41.6756 -84.2139 105° East 198 228 7,100  Level Chicago Center
Tue 05:51:50 PM 41.6747 -84.1433 91° East 195 224 7,100  Level Chicago Center

Login

Don't have an account? Register now (free) for customized features, flight alerts, and more!